Dades meteomassalio
Diari Summary for Juny 12, 2017 Units:  English    Metric   Both
« Previous Day
Next Day »
Diari Semanal Mensual Anual Personalitzat
  Maxima: Minima: Mijana:
Temperatura: TemperatureC °F 19.1 °F 26.4 °F
Rosada: DewpointC °F 10.1 °F 13.8 °F
Humitat: Humidity % 26 % 49 %
Velocitat del vent: WindSpeedKMH mph 0.0 mph 6.5 mph
Racha vent: WindSpeedGustKMH mph - -
Vent:- - South
Pressio: PressurehPa in 1012.4 in -
Pluja: 0.0 in    
Historical Graphs
 
 
Tabular Data for Juny 12, 2017
Time Temperature Dew Point Pressure Wind Wind Speed Wind Gust Humidity Rainfall Rate (Hourly) solar Conditions
TemperatureC °F DewpointC °F PressurehPa in Calm     Humidity % HourlyPrecipMM in SolarRadiationWatts/m^2 W/m2 Conditions
00:03 25.3 °F 12.8 °F 1014.8 in Calm     46 % 0.0 in 0.0 W/m2 CLR
00:08 25.2 °F 12.8 °F 1014.8 in Calm     46 % 0.0 in 0.0 W/m2 CLR
00:13 25.1 °F 12.7 °F 1014.8 in Calm     46 % 0.0 in 0.0 W/m2 CLR
00:18 24.9 °F 12.8 °F 1014.8 in Calm     47 % 0.0 in 0.0 W/m2 CLR
00:23 24.7 °F 12.9 °F 1014.8 in Calm     48 % 0.0 in 0.0 W/m2 CLR
00:28 24.5 °F 13.1 °F 1015.1 in Calm     49 % 0.0 in 0.0 W/m2 CLR
00:33 24.4 °F 13.0 °F 1015.1 in Calm     49 % 0.0 in 0.0 W/m2 CLR
00:38 24.3 °F 12.9 °F 1015.1 in Calm     49 % 0.0 in 0.0 W/m2 CLR
00:43 24.2 °F 12.8 °F 1015.1 in Calm     49 % 0.0 in 0.0 W/m2 CLR
00:48 24.0 °F 12.9 °F 1015.1 in Calm     50 % 0.0 in 0.0 W/m2 CLR
00:53 23.8 °F 13.1 °F 1015.1 in Calm     51 % 0.0 in 0.0 W/m2 CLR
00:58 23.7 °F 13.2 °F 1015.1 in Calm     52 % 0.0 in 0.0 W/m2 CLR
01:03 23.6 °F 13.1 °F 1015.1 in Calm     52 % 0.0 in 0.0 W/m2 CLR
01:08 23.4 °F 13.3 °F 1015.1 in Calm     53 % 0.0 in 0.0 W/m2 CLR
01:13 23.3 °F 13.2 °F 1015.1 in Calm     53 % 0.0 in 0.0 W/m2 CLR
01:18 23.1 °F 13.2 °F 1015.1 in Calm     54 % 0.0 in 0.0 W/m2 CLR
01:23 22.9 °F 13.1 °F 1015.1 in Calm     54 % 0.0 in 0.0 W/m2 CLR
01:28 22.8 °F 13.1 °F 1015.1 in Calm     54 % 0.0 in 0.0 W/m2 CLR
01:33 22.8 °F 13.3 °F 1015.1 in Calm     55 % 0.0 in 0.0 W/m2 CLR
01:38 22.7 °F 13.2 °F 1015.5 in Calm     55 % 0.0 in 0.0 W/m2 CLR
01:43 22.5 °F 13.3 °F 1015.5 in Calm     56 % 0.0 in 0.0 W/m2 CLR
01:48 22.3 °F 13.4 °F 1015.5 in Calm     57 % 0.0 in 0.0 W/m2 CLR
01:53 22.2 °F 13.3 °F 1015.5 in Calm     57 % 0.0 in 0.0 W/m2 CLR
01:58 22.1 °F 13.7 °F 1015.5 in Calm     59 % 0.0 in 0.0 W/m2 CLR
02:03 22.0 °F 13.6 °F 1015.5 in Calm     59 % 0.0 in 0.0 W/m2 CLR
02:08 21.8 °F 13.7 °F 1015.5 in Calm     60 % 0.0 in 0.0 W/m2 CLR
02:13 21.6 °F 13.8 °F 1015.5 in Calm     61 % 0.0 in 0.0 W/m2 CLR
02:18 21.4 °F 13.6 °F 1015.5 in Calm     61 % 0.0 in 0.0 W/m2 CLR
02:23 21.2 °F 13.7 °F 1015.5 in Calm     62 % 0.0 in 0.0 W/m2 CLR
02:28 21.0 °F 13.7 °F 1015.5 in Calm     63 % 0.0 in 0.0 W/m2 CLR
02:33 20.8 °F 13.7 °F 1015.5 in Calm     64 % 0.0 in 0.0 W/m2 CLR
02:38 20.6 °F 13.8 °F 1015.5 in Calm     65 % 0.0 in 0.0 W/m2 CLR
02:44 20.3 °F 14.0 °F 1015.5 in Calm     67 % 0.0 in 0.0 W/m2 CLR
02:49 20.0 °F 13.9 °F 1015.5 in Calm     68 % 0.0 in 0.0 W/m2 CLR
02:54 19.8 °F 13.8 °F 1015.5 in Calm     68 % 0.0 in 0.0 W/m2 CLR
02:59 19.8 °F 13.7 °F 1015.5 in Calm     68 % 0.0 in 0.0 W/m2 CLR
03:04 19.7 °F 13.6 °F 1015.8 in Calm     68 % 0.0 in 0.0 W/m2 CLR
03:09 19.6 °F 13.7 °F 1015.8 in Calm     69 % 0.0 in 0.0 W/m2 CLR
03:14 19.5 °F 13.7 °F 1015.8 in Calm     69 % 0.0 in 0.0 W/m2 CLR
03:19 19.3 °F 13.7 °F 1015.8 in Calm     70 % 0.0 in 0.0 W/m2 CLR
03:24 19.2 °F 13.6 °F 1015.8 in Calm     70 % 0.0 in 0.0 W/m2 CLR
03:29 19.1 °F 13.2 °F 1015.8 in Calm     69 % 0.0 in 0.0 W/m2 CLR
03:34 19.1 °F 13.1 °F 1015.8 in SW 7.4 mph 7.4 mph 68 % 0.0 in 0.0 W/m2 CLR
03:39 19.2 °F 13.1 °F 1015.8 in Calm     68 % 0.0 in 0.0 W/m2 CLR
03:44 19.3 °F 13.1 °F 1015.8 in Calm     67 % 0.0 in 0.0 W/m2 CLR
03:49 19.4 °F 13.1 °F 1015.8 in Calm     67 % 0.0 in 0.0 W/m2 CLR
03:54 19.4 °F 13.2 °F 1016.1 in Calm     67 % 0.0 in 0.0 W/m2 CLR
03:59 19.5 °F 13.2 °F 1015.8 in Calm     67 % 0.0 in 0.0 W/m2 CLR
04:04 19.5 °F 13.2 °F 1015.8 in Calm     67 % 0.0 in 0.0 W/m2 CLR
04:09 19.4 °F 13.1 °F 1016.1 in Calm     67 % 0.0 in 0.0 W/m2 CLR
04:14 19.4 °F 13.4 °F 1015.8 in Calm     68 % 0.0 in 0.0 W/m2 CLR
04:19 19.7 °F 13.6 °F 1016.1 in WSW 11.1 mph 11.1 mph 68 % 0.0 in 0.0 W/m2 CLR
04:24 20.2 °F 13.6 °F 1016.1 in WSW 11.1 mph 11.1 mph 66 % 0.0 in 0.0 W/m2 CLR
04:29 20.5 °F 13.7 °F 1016.1 in WSW 5.6 mph 5.6 mph 65 % 0.0 in 0.0 W/m2 CLR
04:34 20.6 °F 13.6 °F 1016.1 in Calm     64 % 0.0 in 0.0 W/m2 CLR
04:39 20.5 °F 13.4 °F 1016.1 in Calm     64 % 0.0 in 0.0 W/m2 CLR
04:49 20.2 °F 13.6 °F 1016.5 in Calm   0.2 mph 66 % 0.0 in 0.0 W/m2 CLR
04:54 20.0 °F 13.7 °F 1016.5 in SW 5.6 mph 5.6 mph 67 % 0.0 in 0.0 W/m2 CLR
04:59 19.9 °F 13.8 °F 1016.5 in Calm     68 % 0.0 in 0.0 W/m2 CLR
05:04 19.8 °F 13.7 °F 1016.5 in Calm     68 % 0.0 in 0.0 W/m2 CLR
05:09 19.8 °F 13.9 °F 1016.5 in Calm     69 % 0.0 in 0.0 W/m2 CLR
05:14 19.7 °F 14.1 °F 1016.5 in Calm     70 % 0.0 in 0.0 W/m2 CLR
05:19 19.7 °F 14.1 °F 1016.5 in Calm     70 % 0.0 in 0.0 W/m2 CLR
05:24 19.8 °F 14.4 °F 1016.5 in Calm     71 % 0.0 in 0.0 W/m2 CLR
05:29 19.7 °F 14.3 °F 1016.5 in Calm     71 % 0.0 in 0.0 W/m2 CLR
05:34 19.7 °F 14.3 °F 1016.5 in Calm     71 % 0.0 in 0.0 W/m2 CLR
05:39 19.6 °F 14.2 °F 1016.5 in Calm     71 % 0.0 in 0.0 W/m2 CLR
05:44 19.6 °F 14.4 °F 1016.5 in Calm     72 % 0.0 in 0.0 W/m2 CLR
05:49 19.6 °F 14.8 °F 1016.8 in WNW 1.9 mph   74 % 0.0 in 0.0 W/m2 CLR
05:54 19.6 °F 14.8 °F 1016.8 in WNW 5.6 mph 5.6 mph 74 % 0.0 in 0.0 W/m2 CLR
05:59 19.7 °F 14.7 °F 1016.8 in Calm     73 % 0.0 in 0.0 W/m2 CLR
06:04 19.7 °F 14.9 °F 1016.8 in WSW 1.9 mph   74 % 0.0 in 0.0 W/m2 CLR
06:09 19.7 °F 14.9 °F 1016.8 in Calm     74 % 0.0 in 0.0 W/m2 CLR
06:14 19.7 °F 14.9 °F 1016.8 in Calm     74 % 0.0 in 0.0 W/m2 CLR
06:19 19.6 °F 15.0 °F 1016.8 in Calm     75 % 0.0 in 0.0 W/m2 OVC
06:25 19.5 °F 14.9 °F 1016.8 in Calm     75 % 0.0 in 0.0 W/m2 OVC
06:30 19.4 °F 14.8 °F 1017.2 in Calm     75 % 0.0 in 5.0 W/m2 OVC
06:35 19.3 °F 15.0 °F 1017.2 in Calm     76 % 0.0 in 7.0 W/m2 BKN
06:40 19.3 °F 15.0 °F 1017.2 in Calm     76 % 0.0 in 9.0 W/m2 BKN
06:45 19.2 °F 14.9 °F 1017.2 in Calm     76 % 0.0 in 12.0 W/m2 BKN
06:50 19.2 °F 14.8 °F 1017.2 in Calm     76 % 0.0 in 16.0 W/m2 BKN
06:55 19.2 °F 14.8 °F 1017.2 in Calm     76 % 0.0 in 18.0 W/m2 BKN
07:00 19.1 °F 15.0 °F 1017.5 in Calm     77 % 0.0 in 21.0 W/m2 BKN
07:05 19.1 °F 15.0 °F 1017.2 in Calm     77 % 0.0 in 28.0 W/m2 BKN
07:10 19.2 °F 15.2 °F 1017.5 in Calm     78 % 0.0 in 37.0 W/m2 BKN
07:15 19.3 °F 15.2 °F 1017.5 in Calm     77 % 0.0 in 46.0 W/m2 SCT
07:20 19.3 °F 15.2 °F 1017.2 in Calm     77 % 0.0 in 54.0 W/m2 SCT
07:25 19.5 °F 15.3 °F 1017.2 in Calm     77 % 0.0 in 65.0 W/m2 SCT
07:30 19.7 °F 15.3 °F 1017.5 in Calm     76 % 0.0 in 76.0 W/m2 SCT
07:35 19.8 °F 15.5 °F 1017.5 in Calm     76 % 0.0 in 91.0 W/m2 FEW
07:40 20.0 °F 15.4 °F 1017.5 in Calm     75 % 0.0 in 104.0 W/m2 CLR
07:45 20.2 °F 15.7 °F 1017.5 in Calm     75 % 0.0 in 118.0 W/m2 CLR
07:50 20.5 °F 15.7 °F 1017.5 in Calm     74 % 0.0 in 135.0 W/m2 CLR
07:55 20.8 °F 16.0 °F 1017.5 in Calm     74 % 0.0 in 149.0 W/m2 CLR
08:00 21.1 °F 16.0 °F 1017.5 in Calm     73 % 0.0 in 165.0 W/m2 CLR
08:05 21.2 °F 15.8 °F 1017.5 in NNW 9.3 mph 9.3 mph 71 % 0.0 in 181.0 W/m2 CLR
08:10 21.3 °F 15.8 °F 1017.5 in NNW 8.0 mph 8.0 mph 71 % 0.0 in 197.0 W/m2 CLR
08:15 21.4 °F 15.9 °F 1017.5 in WNW 14.8 mph 14.8 mph 71 % 0.0 in 216.0 W/m2 CLR
08:20 21.4 °F 15.9 °F 1017.5 in NW 13.0 mph 13.0 mph 71 % 0.0 in 230.0 W/m2 CLR
08:25 21.5 °F 15.8 °F 1017.5 in NW 14.8 mph 14.8 mph 70 % 0.0 in 244.0 W/m2 CLR
08:30 21.6 °F 15.8 °F 1017.5 in NW 11.1 mph 11.1 mph 70 % 0.0 in 260.0 W/m2 CLR
08:35 21.7 °F 15.9 °F 1017.5 in West 13.0 mph 13.0 mph 70 % 0.0 in 274.0 W/m2 CLR
08:40 21.8 °F 15.8 °F 1017.5 in West 8.0 mph 8.0 mph 69 % 0.0 in 290.0 W/m2 CLR
08:45 21.9 °F 15.9 °F 1017.5 in NW 16.7 mph 16.7 mph 69 % 0.0 in 306.0 W/m2 CLR
08:50 21.9 °F 15.7 °F 1017.5 in WSW 14.8 mph 14.8 mph 68 % 0.0 in 318.0 W/m2 CLR
08:55 22.1 °F 16.1 °F 1017.5 in WNW 11.1 mph 11.1 mph 69 % 0.0 in 336.0 W/m2 CLR
09:00 22.2 °F 16.1 °F 1017.5 in WNW 14.8 mph 14.8 mph 68 % 0.0 in 350.0 W/m2 CLR
09:05 22.2 °F 16.0 °F 1017.5 in West 9.3 mph 9.3 mph 68 % 0.0 in 364.0 W/m2 CLR
09:10 22.3 °F 16.1 °F 1017.5 in NW 13.0 mph 13.0 mph 68 % 0.0 in 380.0 W/m2 CLR
09:15 22.4 °F 15.9 °F 1017.5 in NW 11.1 mph 11.1 mph 67 % 0.0 in 396.0 W/m2 CLR
09:20 22.4 °F 16.2 °F 1017.5 in NW 9.3 mph 9.3 mph 68 % 0.0 in 413.0 W/m2 CLR
09:25 22.6 °F 16.4 °F 1017.5 in NW 11.3 mph 11.3 mph 68 % 0.0 in 427.0 W/m2 CLR
09:30 22.8 °F 16.3 °F 1017.5 in NW 12.9 mph 12.9 mph 67 % 0.0 in 441.0 W/m2 CLR
09:35 23.0 °F 16.3 °F 1017.5 in NW 13.0 mph 13.0 mph 66 % 0.0 in 455.0 W/m2 CLR
09:40 23.2 °F 16.3 °F 1017.5 in NW 8.0 mph 8.0 mph 65 % 0.0 in 473.0 W/m2 CLR
09:45 23.3 °F 16.1 °F 1017.5 in West 9.3 mph 9.3 mph 64 % 0.0 in 487.0 W/m2 CLR
09:50 23.4 °F 16.2 °F 1017.5 in West 7.4 mph 7.4 mph 64 % 0.0 in 499.0 W/m2 CLR
09:55 23.6 °F 16.3 °F 1017.5 in NW 11.3 mph 11.3 mph 64 % 0.0 in 515.0 W/m2 CLR
10:00 23.7 °F 15.9 °F 1017.5 in WNW 13.0 mph 13.0 mph 62 % 0.0 in 527.0 W/m2 CLR
10:05 23.8 °F 16.1 °F 1017.5 in West 13.0 mph 13.0 mph 62 % 0.0 in 543.0 W/m2 CLR
10:10 23.9 °F 16.2 °F 1017.2 in West 11.1 mph 11.1 mph 62 % 0.0 in 557.0 W/m2 CLR
10:15 24.2 °F 16.5 °F 1017.2 in WNW 9.3 mph 9.3 mph 62 % 0.0 in 571.0 W/m2 CLR
10:20 24.4 °F 16.4 °F 1017.2 in Calm     61 % 0.0 in 587.0 W/m2 CLR
10:26 24.8 °F 16.8 °F 1017.2 in West 5.6 mph 5.6 mph 61 % 0.0 in 605.0 W/m2 CLR
10:31 25.0 °F 16.4 °F 1017.2 in West 5.6 mph 5.6 mph 59 % 0.0 in 617.0 W/m2 CLR
10:32 25.1 °F 16.5 °F 1017.2 in WNW 6.4 mph 6.4 mph 59 % 0.0 in 619.0 W/m2 CLR
10:37 25.2 °F 16.3 °F 1017.2 in WSW 9.3 mph 9.3 mph 58 % 0.0 in 629.0 W/m2 CLR
10:42 25.3 °F 16.5 °F 1017.2 in Calm     58 % 0.0 in 647.0 W/m2 CLR
10:47 25.3 °F 16.2 °F 1016.8 in WSW 14.8 mph 14.8 mph 57 % 0.0 in 659.0 W/m2 CLR
10:52 25.4 °F 16.3 °F 1017.2 in WNW 12.9 mph 12.9 mph 57 % 0.0 in 670.0 W/m2 CLR
10:57 25.6 °F 16.2 °F 1016.8 in West 1.6 mph   56 % 0.0 in 682.0 W/m2 CLR
11:02 25.8 °F 16.4 °F 1016.8 in NNW 9.3 mph 9.3 mph 56 % 0.0 in 694.0 W/m2 CLR
11:07 25.9 °F 16.5 °F 1016.8 in West 9.3 mph 9.3 mph 56 % 0.0 in 707.0 W/m2 CLR
11:12 26.2 °F 16.7 °F 1016.8 in NW 13.0 mph 13.0 mph 56 % 0.0 in 719.0 W/m2 CLR
11:17 26.6 °F 16.2 °F 1016.8 in WNW 14.8 mph 14.8 mph 53 % 0.0 in 728.0 W/m2 CLR
11:22 26.6 °F 16.5 °F 1016.8 in NW 8.0 mph 8.0 mph 54 % 0.0 in 740.0 W/m2 CLR
11:27 26.7 °F 16.6 °F 1016.8 in North 11.1 mph 11.1 mph 54 % 0.0 in 754.0 W/m2 CLR
11:32 26.8 °F 16.7 °F 1016.8 in NW 13.0 mph 13.0 mph 54 % 0.0 in 761.0 W/m2 CLR
11:37 26.9 °F 16.5 °F 1016.8 in Calm     53 % 0.0 in 770.0 W/m2 CLR
11:42 27.2 °F 16.5 °F 1016.8 in NW 7.4 mph 7.4 mph 52 % 0.0 in 780.0 W/m2 CLR
11:47 27.3 °F 16.6 °F 1016.8 in North 3.7 mph   52 % 0.0 in 793.0 W/m2 CLR
11:52 27.6 °F 16.5 °F 1016.8 in West 5.6 mph   51 % 0.0 in 802.0 W/m2 CLR
11:57 27.6 °F 16.9 °F 1016.8 in Calm     52 % 0.0 in 809.0 W/m2 CLR
12:02 27.9 °F 16.8 °F 1016.8 in Calm     51 % 0.0 in 819.0 W/m2 CLR
12:07 28.3 °F 16.6 °F 1016.8 in West 1.9 mph 1.9 mph 49 % 0.0 in 824.0 W/m2 CLR
12:12 28.1 °F 16.7 °F 1016.8 in Calm   0.3 mph 50 % 0.0 in 833.0 W/m2 CLR
12:18 28.3 °F 16.9 °F 1016.5 in Calm   2.6 mph 50 % 0.0 in 842.0 W/m2 CLR
12:23 28.3 °F 16.6 °F 1016.5 in Calm     49 % 0.0 in 849.0 W/m2 CLR
12:28 28.6 °F 16.5 °F 1016.5 in Calm     48 % 0.0 in 856.0 W/m2 CLR
12:33 28.9 °F 16.8 °F 1016.5 in Calm     48 % 0.0 in 863.0 W/m2 CLR
12:38 28.9 °F 16.8 °F 1016.5 in Calm     48 % 0.0 in 870.0 W/m2 CLR
12:43 29.1 °F 16.7 °F 1016.5 in NE 9.3 mph 9.3 mph 47 % 0.0 in 879.0 W/m2 CLR
12:48 29.3 °F 16.8 °F 1016.5 in Calm     47 % 0.0 in 884.0 W/m2 CLR
12:53 29.3 °F 16.5 °F 1016.5 in Calm     46 % 0.0 in 889.0 W/m2 CLR
12:58 29.4 °F 16.9 °F 1016.5 in ENE 7.4 mph 7.4 mph 47 % 0.0 in 891.0 W/m2 CLR
13:03 29.6 °F 16.7 °F 1016.1 in North 5.6 mph 5.6 mph 46 % 0.0 in 896.0 W/m2 CLR
13:08 29.7 °F 16.4 °F 1016.1 in ENE 7.4 mph 7.4 mph 45 % 0.0 in 905.0 W/m2 CLR
13:13 30.0 °F 16.4 °F 1016.1 in Calm     44 % 0.0 in 911.0 W/m2 CLR
13:18 30.1 °F 15.8 °F 1016.1 in Calm     42 % 0.0 in 909.0 W/m2 CLR
13:23 30.3 °F 15.6 °F 1016.1 in Calm     41 % 0.0 in 916.0 W/m2 CLR
13:28 30.4 °F 15.7 °F 1016.1 in Calm     41 % 0.0 in 918.0 W/m2 CLR
13:33 30.7 °F 15.5 °F 1016.1 in Calm     40 % 0.0 in 918.0 W/m2 CLR
13:38 30.9 °F 15.7 °F 1015.8 in Calm     40 % 0.0 in 923.0 W/m2 CLR
13:43 30.9 °F 15.7 °F 1015.8 in NE 8.0 mph 8.0 mph 40 % 0.0 in 923.0 W/m2 CLR
13:48 31.0 °F 16.2 °F 1015.8 in NE 3.2 mph 3.2 mph 41 % 0.0 in 923.0 W/m2 CLR
13:53 31.4 °F 16.2 °F 1015.8 in NE 7.4 mph 7.4 mph 40 % 0.0 in 925.0 W/m2 CLR
13:58 31.5 °F 16.3 °F 1015.8 in ENE 7.4 mph 7.4 mph 40 % 0.0 in 923.0 W/m2 CLR
14:03 31.5 °F 15.9 °F 1015.5 in NE 5.6 mph 5.6 mph 39 % 0.0 in 926.0 W/m2 CLR
14:08 31.5 °F 16.7 °F 1015.5 in ENE 11.1 mph 11.1 mph 41 % 0.0 in 923.0 W/m2 CLR
14:13 31.7 °F 16.8 °F 1015.5 in ENE 1.6 mph 1.6 mph 41 % 0.0 in 919.0 W/m2 CLR
14:18 31.9 °F 16.2 °F 1015.1 in Calm     39 % 0.0 in 919.0 W/m2 CLR
14:23 31.9 °F 16.3 °F 1015.1 in NE 11.1 mph 11.1 mph 39 % 0.0 in 921.0 W/m2 CLR
14:28 32.1 °F 15.9 °F 1015.1 in Calm     38 % 0.0 in 919.0 W/m2 CLR
14:33 32.2 °F 16.1 °F 1015.1 in NE 11.3 mph 11.3 mph 38 % 0.0 in 916.0 W/m2 CLR
14:38 32.2 °F 16.1 °F 1014.8 in Calm     38 % 0.0 in 916.0 W/m2 CLR
14:43 32.6 °F 16.4 °F 1014.8 in WNW 5.6 mph 5.6 mph 38 % 0.0 in 912.0 W/m2 CLR
14:48 32.8 °F 16.2 °F 1014.8 in ESE 9.7 mph 9.7 mph 37 % 0.0 in 904.0 W/m2 CLR
14:53 32.8 °F 16.2 °F 1014.8 in ENE 18.5 mph 18.5 mph 37 % 0.0 in 902.0 W/m2 CLR
14:58 32.9 °F 15.9 °F 1014.8 in NNE 13.0 mph 13.0 mph 36 % 0.0 in 900.0 W/m2 CLR
15:03 33.0 °F 15.9 °F 1014.8 in SE 11.1 mph 11.1 mph 36 % 0.0 in 895.0 W/m2 CLR
15:08 32.7 °F 16.6 °F 1014.4 in ESE 14.8 mph 14.8 mph 38 % 0.0 in 891.0 W/m2 CLR
15:13 32.6 °F 16.0 °F 1014.8 in ENE 3.7 mph   37 % 0.0 in 881.0 W/m2 CLR
15:18 32.7 °F 16.1 °F 1014.4 in SE 14.8 mph 14.8 mph 37 % 0.0 in 875.0 W/m2 CLR
15:23 32.8 °F 16.2 °F 1014.4 in Calm     37 % 0.0 in 874.0 W/m2 CLR
15:28 33.2 °F 16.1 °F 1014.4 in ESE 5.6 mph 5.6 mph 36 % 0.0 in 867.0 W/m2 CLR
15:33 33.4 °F 15.9 °F 1014.1 in SE 8.0 mph 8.0 mph 35 % 0.0 in 856.0 W/m2 CLR
15:38 33.4 °F 14.4 °F 1014.4 in ESE 16.1 mph 16.1 mph 32 % 0.0 in 858.0 W/m2 CLR
15:43 33.3 °F 13.4 °F 1014.1 in ESE 11.1 mph 11.1 mph 30 % 0.0 in 851.0 W/m2 CLR
15:48 33.3 °F 13.4 °F 1014.1 in East 14.8 mph 14.8 mph 30 % 0.0 in 844.0 W/m2 CLR
15:53 33.4 °F 12.9 °F 1014.1 in ESE 11.3 mph 11.3 mph 29 % 0.0 in 838.0 W/m2 CLR
15:58 33.6 °F 12.6 °F 1014.1 in ENE 16.7 mph 16.7 mph 28 % 0.0 in 830.0 W/m2 CLR
16:03 33.7 °F 12.6 °F 1014.1 in East 9.7 mph 9.7 mph 28 % 0.0 in 821.0 W/m2 CLR
16:08 33.8 °F 12.7 °F 1014.1 in SE 16.7 mph 16.7 mph 28 % 0.0 in 810.0 W/m2 CLR
16:13 33.8 °F 12.7 °F 1013.8 in ESE 16.7 mph 16.7 mph 28 % 0.0 in 802.0 W/m2 CLR
16:18 33.8 °F 12.2 °F 1013.8 in East 16.7 mph 16.7 mph 27 % 0.0 in 791.0 W/m2 CLR
16:23 33.8 °F 12.7 °F 1013.8 in SSE 14.8 mph 14.8 mph 28 % 0.0 in 784.0 W/m2 CLR
16:28 33.8 °F 12.7 °F 1013.8 in ESE 14.8 mph 14.8 mph 28 % 0.0 in 772.0 W/m2 CLR
16:33 34.0 °F 12.9 °F 1013.8 in SE 9.7 mph 9.7 mph 28 % 0.0 in 759.0 W/m2 CLR
16:38 34.2 °F 12.6 °F 1013.8 in ESE 22.2 mph 22.2 mph 27 % 0.0 in 751.0 W/m2 CLR
16:43 34.1 °F 12.4 °F 1013.4 in East 13.0 mph 13.0 mph 27 % 0.0 in 742.0 W/m2 CLR
16:48 33.9 °F 11.7 °F 1013.8 in ENE 13.0 mph 13.0 mph 26 % 0.0 in 733.0 W/m2 CLR
16:53 33.9 °F 11.7 °F 1013.4 in East 18.5 mph 18.5 mph 26 % 0.0 in 719.0 W/m2 CLR
17:03 33.6 °F 11.4 °F 1013.4 in East 20.4 mph 20.4 mph 26 % 0.0 in 698.0 W/m2 CLR
17:08 33.7 °F 11.6 °F 1013.4 in ESE 13.0 mph 13.0 mph 26 % 0.0 in 687.0 W/m2 CLR
17:13 33.6 °F 11.4 °F 1013.4 in ESE 22.2 mph 22.2 mph 26 % 0.0 in 671.0 W/m2 CLR
17:18 33.7 °F 12.1 °F 1013.4 in ESE 18.5 mph 18.5 mph 27 % 0.0 in 657.0 W/m2 CLR
17:23 33.8 °F 11.6 °F 1013.4 in ESE 16.7 mph 16.7 mph 26 % 0.0 in 650.0 W/m2 CLR
17:28 33.7 °F 11.6 °F 1013.4 in ESE 16.1 mph 16.1 mph 26 % 0.0 in 635.0 W/m2 CLR
17:33 33.6 °F 12.1 °F 1013.1 in East 7.4 mph 7.4 mph 27 % 0.0 in 619.0 W/m2 CLR
17:38 33.8 °F 12.2 °F 1013.1 in East 11.3 mph 11.3 mph 27 % 0.0 in 608.0 W/m2 CLR
17:43 33.7 °F 12.1 °F 1013.1 in ENE 16.7 mph 16.7 mph 27 % 0.0 in 596.0 W/m2 CLR
17:48 33.7 °F 12.1 °F 1013.1 in ESE 11.1 mph 11.1 mph 27 % 0.0 in 582.0 W/m2 CLR
17:53 33.8 °F 11.7 °F 1013.1 in East 14.5 mph 14.5 mph 26 % 0.0 in 568.0 W/m2 CLR
17:58 33.8 °F 12.2 °F 1013.1 in SE 20.9 mph 20.9 mph 27 % 0.0 in 552.0 W/m2 CLR
18:03 33.7 °F 12.6 °F 1013.1 in SE 14.5 mph 14.5 mph 28 % 0.0 in 538.0 W/m2 CLR
18:04 33.7 °F 12.6 °F 1013.1 in SE 16.7 mph 16.7 mph 28 % 0.0 in 534.0 W/m2 CLR
18:09 33.6 °F 12.6 °F 1013.1 in South 18.5 mph 18.5 mph 28 % 0.0 in 520.0 W/m2 CLR
18:14 33.5 °F 12.5 °F 1013.1 in SE 9.3 mph 9.3 mph 28 % 0.0 in 506.0 W/m2 CLR
18:19 33.6 °F 12.1 °F 1012.8 in SE 14.8 mph 14.8 mph 27 % 0.0 in 492.0 W/m2 CLR
18:24 33.6 °F 11.4 °F 1012.8 in ESE 24.1 mph 24.1 mph 26 % 0.0 in 476.0 W/m2 CLR
18:29 33.4 °F 11.3 °F 1012.8 in SSE 18.5 mph 18.5 mph 26 % 0.0 in 462.0 W/m2 CLR
18:34 33.4 °F 11.3 °F 1012.8 in East 17.7 mph 17.7 mph 26 % 0.0 in 450.0 W/m2 CLR
18:39 33.2 °F 11.7 °F 1012.8 in East 14.8 mph 14.8 mph 27 % 0.0 in 432.0 W/m2 CLR
18:44 33.3 °F 11.7 °F 1012.8 in SE 14.8 mph 14.8 mph 27 % 0.0 in 418.0 W/m2 CLR
18:49 33.3 °F 11.8 °F 1012.8 in SE 22.5 mph 22.5 mph 27 % 0.0 in 399.0 W/m2 CLR
18:54 33.3 °F 12.3 °F 1012.4 in SE 14.8 mph 14.8 mph 28 % 0.0 in 383.0 W/m2 CLR
18:55 33.3 °F 12.3 °F 1012.4 in ESE 16.7 mph 16.7 mph 28 % 0.0 in 380.0 W/m2 CLR
19:00 33.3 °F 11.8 °F 1012.4 in SE 25.9 mph 25.9 mph 27 % 0.0 in 367.0 W/m2 CLR
19:05 33.2 °F 12.3 °F 1012.4 in East 14.8 mph 14.8 mph 28 % 0.0 in 350.0 W/m2 CLR
19:10 33.2 °F 12.3 °F 1012.8 in ESE 20.4 mph 20.4 mph 28 % 0.0 in 332.0 W/m2 CLR
19:15 33.2 °F 12.2 °F 1012.4 in ESE 18.5 mph 18.5 mph 28 % 0.0 in 318.0 W/m2 CLR
19:20 33.1 °F 12.1 °F 1012.4 in ESE 18.5 mph 18.5 mph 28 % 0.0 in 304.0 W/m2 CLR
19:25 32.9 °F 12.0 °F 1012.4 in ESE 16.7 mph 16.7 mph 28 % 0.0 in 290.0 W/m2 CLR
19:30 32.8 °F 11.9 °F 1012.4 in East 16.7 mph 16.7 mph 28 % 0.0 in 271.0 W/m2 CLR
19:32 32.8 °F 11.9 °F 1012.4 in SE 18.5 mph 18.5 mph 28 % 0.0 in 267.0 W/m2 CLR
19:37 32.7 °F 11.8 °F 1012.4 in East 18.5 mph 18.5 mph 28 % 0.0 in 250.0 W/m2 CLR
19:42 32.6 °F 12.3 °F 1012.4 in ESE 22.5 mph 22.5 mph 29 % 0.0 in 237.0 W/m2 CLR
19:47 32.4 °F 11.6 °F 1012.8 in SE 18.5 mph 18.5 mph 28 % 0.0 in 223.0 W/m2 CLR
19:52 32.3 °F 11.4 °F 1012.8 in SE 18.5 mph 18.5 mph 28 % 0.0 in 206.0 W/m2 CLR
19:57 32.2 °F 11.3 °F 1012.4 in ESE 18.5 mph 18.5 mph 28 % 0.0 in 186.0 W/m2 CLR
20:02 32.1 °F 11.3 °F 1012.4 in ESE 13.0 mph 13.0 mph 28 % 0.0 in 171.0 W/m2 CLR
20:07 32.1 °F 11.3 °F 1012.4 in ESE 13.0 mph 13.0 mph 28 % 0.0 in 155.0 W/m2 CLR
20:12 31.9 °F 11.7 °F 1012.4 in SSE 13.0 mph 13.0 mph 29 % 0.0 in 139.0 W/m2 CLR
20:17 31.8 °F 11.6 °F 1012.8 in SE 11.1 mph 11.1 mph 29 % 0.0 in 125.0 W/m2 CLR
20:22 31.7 °F 11.4 °F 1012.8 in Calm   1.0 mph 29 % 0.0 in 107.0 W/m2 CLR
20:27 31.4 °F 11.3 °F 1012.8 in ESE 13.0 mph 13.0 mph 29 % 0.0 in 93.0 W/m2 CLR
20:32 31.3 °F 11.1 °F 1012.8 in ESE 11.1 mph 11.1 mph 29 % 0.0 in 81.0 W/m2 FEW
20:37 31.1 °F 11.0 °F 1012.8 in SE 11.1 mph 11.1 mph 29 % 0.0 in 69.0 W/m2 FEW
20:42 30.9 °F 10.8 °F 1012.8 in SE 13.0 mph 13.0 mph 29 % 0.0 in 47.0 W/m2 SCT
20:47 30.8 °F 11.2 °F 1012.8 in SE 6.4 mph 6.4 mph 30 % 0.0 in 30.0 W/m2 BKN
20:52 30.7 °F 11.2 °F 1012.8 in SSE 9.3 mph 9.3 mph 30 % 0.0 in 35.0 W/m2 BKN
20:57 30.6 °F 11.0 °F 1012.8 in SSE 9.3 mph 9.3 mph 30 % 0.0 in 28.0 W/m2 BKN
21:02 30.4 °F 10.9 °F 1012.8 in SE 9.3 mph 9.3 mph 30 % 0.0 in 19.0 W/m2 BKN
21:07 30.3 °F 11.3 °F 1012.8 in SSE 11.1 mph 11.1 mph 31 % 0.0 in 14.0 W/m2 BKN
21:12 30.2 °F 10.7 °F 1012.8 in South 13.0 mph 13.0 mph 30 % 0.0 in 12.0 W/m2 BKN
21:17 30.2 °F 10.7 °F 1012.8 in South 13.0 mph 13.0 mph 30 % 0.0 in 11.0 W/m2 BKN
21:22 30.0 °F 10.6 °F 1012.8 in SSE 16.7 mph 16.7 mph 30 % 0.0 in 9.0 W/m2 BKN
21:27 29.9 °F 10.4 °F 1012.8 in South 18.5 mph 18.5 mph 30 % 0.0 in 5.0 W/m2 OVC
21:32 29.7 °F 10.3 °F 1012.8 in South 9.3 mph 9.3 mph 30 % 0.0 in 0.0 W/m2 OVC
21:33 29.7 °F 10.3 °F 1012.8 in South 11.3 mph 11.3 mph 30 % 0.0 in 0.0 W/m2 OVC
21:38 29.5 °F 10.1 °F 1012.8 in South 11.3 mph 11.3 mph 30 % 0.0 in 0.0 W/m2 OVC
21:43 29.4 °F 10.5 °F 1012.8 in SSE 11.1 mph 11.1 mph 31 % 0.0 in 0.0 W/m2 OVC
21:48 29.2 °F 10.3 °F 1013.1 in South 14.5 mph 14.5 mph 31 % 0.0 in 0.0 W/m2 CLR
21:53 29.1 °F 10.7 °F 1013.1 in South 11.1 mph 11.1 mph 32 % 0.0 in 0.0 W/m2 CLR
21:58 28.9 °F 10.6 °F 1013.1 in SSE 11.1 mph 11.1 mph 32 % 0.0 in 0.0 W/m2 CLR
22:03 28.8 °F 10.9 °F 1013.1 in Calm     33 % 0.0 in 0.0 W/m2 CLR
22:08 28.7 °F 10.8 °F 1013.1 in Calm     33 % 0.0 in 0.0 W/m2 CLR
22:13 28.5 °F 11.1 °F 1013.1 in Calm     34 % 0.0 in 0.0 W/m2 CLR
22:18 28.3 °F 10.9 °F 1013.1 in Calm     34 % 0.0 in 0.0 W/m2 CLR
22:23 28.2 °F 11.3 °F 1013.1 in Calm     35 % 0.0 in 0.0 W/m2 CLR
22:28 27.9 °F 11.1 °F 1013.1 in Calm     35 % 0.0 in 0.0 W/m2 CLR
22:33 27.8 °F 11.3 °F 1013.4 in Calm     36 % 0.0 in 0.0 W/m2 CLR
22:38 27.6 °F 11.2 °F 1013.4 in Calm     36 % 0.0 in 0.0 W/m2 CLR
22:43 27.5 °F 11.1 °F 1013.4 in Calm     36 % 0.0 in 0.0 W/m2 CLR
22:48 27.3 °F 11.3 °F 1013.4 in Calm     37 % 0.0 in 0.0 W/m2 CLR
22:53 27.2 °F 11.2 °F 1013.4 in Calm     37 % 0.0 in 0.0 W/m2 CLR
22:58 27.0 °F 11.1 °F 1013.4 in Calm     37 % 0.0 in 0.0 W/m2 CLR
23:03 26.9 °F 11.4 °F 1013.8 in Calm     38 % 0.0 in 0.0 W/m2 CLR
23:08 26.7 °F 11.2 °F 1013.8 in Calm     38 % 0.0 in 0.0 W/m2 CLR
23:13 26.6 °F 11.4 °F 1013.8 in Calm     39 % 0.0 in 0.0 W/m2 CLR
23:18 26.2 °F 11.6 °F 1013.8 in Calm     40 % 0.0 in 0.0 W/m2 CLR
23:23 25.9 °F 11.3 °F 1013.8 in Calm     40 % 0.0 in 0.0 W/m2 CLR
23:28 25.7 °F 11.5 °F 1013.8 in Calm     41 % 0.0 in 0.0 W/m2 CLR
23:33 25.4 °F 11.6 °F 1013.8 in Calm     42 % 0.0 in 0.0 W/m2 CLR
23:38 25.2 °F 11.7 °F 1013.8 in Calm     43 % 0.0 in 0.0 W/m2 CLR
23:43 24.9 °F 12.2 °F 1013.8 in Calm     45 % 0.0 in 0.0 W/m2 CLR
23:48 24.6 °F 11.6 °F 1013.8 in Calm     44 % 0.0 in 0.0 W/m2 CLR
23:53 24.4 °F 11.4 °F 1013.8 in Calm     44 % 0.0 in 0.0 W/m2 CLR
23:58 24.4 °F 11.4 °F 1013.8 in Calm     44 % 0.0 in 0.0 W/m2 CLR
Lo Temps de Massalio
Compliments of Weather Underground - 1.25 mb